sensor_id;sensor_type;location;lat;lon;timestamp;temperature;humidity
4058;DHT22;2044;48.692;9.020;2023-04-01T00:01:26;6.80;99.90
4058;DHT22;2044;48.692;9.020;2023-04-01T00:03:53;6.80;99.90
4058;DHT22;2044;48.692;9.020;2023-04-01T00:06:21;6.80;99.90
4058;DHT22;2044;48.692;9.020;2023-04-01T00:08:48;6.80;99.90
4058;DHT22;2044;48.692;9.020;2023-04-01T00:11:16;6.70;99.90
4058;DHT22;2044;48.692;9.020;2023-04-01T00:13:44;6.80;99.90
4058;DHT22;2044;48.692;9.020;2023-04-01T00:16:11;6.80;99.90
4058;DHT22;2044;48.692;9.020;2023-04-01T00:18:38;6.90;99.90
4058;DHT22;2044;48.692;9.020;2023-04-01T00:21:06;6.90;99.90
4058;DHT22;2044;48.692;9.020;2023-04-01T00:23:33;6.90;99.90
4058;DHT22;2044;48.692;9.020;2023-04-01T00:26:00;6.90;99.90
4058;DHT22;2044;48.692;9.020;2023-04-01T00:28:29;6.80;99.90
4058;DHT22;2044;48.692;9.020;2023-04-01T00:30:56;6.80;99.90
4058;DHT22;2044;48.692;9.020;2023-04-01T00:33:23;6.90;99.90
4058;DHT22;2044;48.692;9.020;2023-04-01T00:35:50;6.90;99.90
4058;DHT22;2044;48.692;9.020;2023-04-01T00:38:16;6.90;99.90
4058;DHT22;2044;48.692;9.020;2023-04-01T00:40:46;6.90;99.90
4058;DHT22;2044;48.692;9.020;2023-04-01T00:43:14;6.90;99.90
4058;DHT22;2044;48.692;9.020;2023-04-01T00:45:45;6.90;99.90
4058;DHT22;2044;48.692;9.020;2023-04-01T00:48:15;6.90;99.90
4058;DHT22;2044;48.692;9.020;2023-04-01T00:50:46;6.80;99.90
4058;DHT22;2044;48.692;9.020;2023-04-01T00:53:16;6.80;99.90
4058;DHT22;2044;48.692;9.020;2023-04-01T00:55:50;6.80;99.90
4058;DHT22;2044;48.692;9.020;2023-04-01T00:58:21;6.80;99.90
4058;DHT22;2044;48.692;9.020;2023-04-01T01:00:52;6.80;99.90
4058;DHT22;2044;48.692;9.020;2023-04-01T01:03:19;6.70;99.90
4058;DHT22;2044;48.692;9.020;2023-04-01T01:06:04;6.60;99.90
4058;DHT22;2044;48.692;9.020;2023-04-01T01:08:45;6.60;99.90
4058;DHT22;2044;48.692;9.020;2023-04-01T01:11:14;6.60;99.90
4058;DHT22;2044;48.692;9.020;2023-04-01T01:13:51;6.60;99.90
4058;DHT22;2044;48.692;9.020;2023-04-01T01:16:24;6.70;99.90
4058;DHT22;2044;48.692;9.020;2023-04-01T01:19:01;6.70;99.90
4058;DHT22;2044;48.692;9.020;2023-04-01T01:21:48;6.70;99.90
4058;DHT22;2044;48.692;9.020;2023-04-01T01:24:31;6.70;99.90
4058;DHT22;2044;48.692;9.020;2023-04-01T01:27:04;6.70;99.90
4058;DHT22;2044;48.692;9.020;2023-04-01T01:30:18;6.70;99.90
4058;DHT22;2044;48.692;9.020;2023-04-01T01:33:16;6.70;99.90
4058;DHT22;2044;48.692;9.020;2023-04-01T01:35:46;6.70;99.90
4058;DHT22;2044;48.692;9.020;2023-04-01T01:38:16;6.70;99.90
4058;DHT22;2044;48.692;9.020;2023-04-01T01:40:47;6.80;99.90
4058;DHT22;2044;48.692;9.020;2023-04-01T01:43:20;6.70;99.90
4058;DHT22;2044;48.692;9.020;2023-04-01T01:45:50;6.60;99.90
4058;DHT22;2044;48.692;9.020;2023-04-01T01:48:19;6.50;99.90
4058;DHT22;2044;48.692;9.020;2023-04-01T01:50:48;6.50;99.90
4058;DHT22;2044;48.692;9.020;2023-04-01T01:53:15;6.50;99.90
4058;DHT22;2044;48.692;9.020;2023-04-01T01:55:44;6.50;99.90
4058;DHT22;2044;48.692;9.020;2023-04-01T01:58:14;6.50;99.90
4058;DHT22;2044;48.692;9.020;2023-04-01T02:00:46;6.50;99.90
4058;DHT22;2044;48.692;9.020;2023-04-01T02:03:15;6.50;99.90
4058;DHT22;2044;48.692;9.020;2023-04-01T02:05:44;6.50;99.90
4058;DHT22;2044;48.692;9.020;2023-04-01T02:08:14;6.50;99.90
4058;DHT22;2044;48.692;9.020;2023-04-01T02:10:45;6.50;99.90
4058;DHT22;2044;48.692;9.020;2023-04-01T02:13:20;6.50;99.90
4058;DHT22;2044;48.692;9.020;2023-04-01T02:15:50;6.50;99.90
4058;DHT22;2044;48.692;9.020;2023-04-01T02:18:21;6.50;99.90
4058;DHT22;2044;48.692;9.020;2023-04-01T02:20:49;6.50;99.90
4058;DHT22;2044;48.692;9.020;2023-04-01T02:23:17;6.50;99.90
4058;DHT22;2044;48.692;9.020;2023-04-01T02:25:45;6.40;99.90
4058;DHT22;2044;48.692;9.020;2023-04-01T02:28:13;6.40;99.90
4058;DHT22;2044;48.692;9.020;2023-04-01T02:30:42;6.40;99.90
4058;DHT22;2044;48.692;9.020;2023-04-01T02:33:10;6.40;99.90
4058;DHT22;2044;48.692;9.020;2023-04-01T02:38:05;6.40;99.90
4058;DHT22;2044;48.692;9.020;2023-04-01T02:40:46;6.40;99.90
4058;DHT22;2044;48.692;9.020;2023-04-01T02:43:13;6.40;99.90
4058;DHT22;2044;48.692;9.020;2023-04-01T02:45:41;6.40;99.90
4058;DHT22;2044;48.692;9.020;2023-04-01T02:48:08;6.40;99.90
4058;DHT22;2044;48.692;9.020;2023-04-01T02:50:35;6.30;99.90
4058;DHT22;2044;48.692;9.020;2023-04-01T02:53:02;6.30;99.90
4058;DHT22;2044;48.692;9.020;2023-04-01T02:55:29;6.40;99.90
4058;DHT22;2044;48.692;9.020;2023-04-01T02:57:57;6.40;99.90
4058;DHT22;2044;48.692;9.020;2023-04-01T03:00:24;6.40;99.90
4058;DHT22;2044;48.692;9.020;2023-04-01T03:02:51;6.40;99.90
4058;DHT22;2044;48.692;9.020;2023-04-01T03:05:18;6.30;99.90
4058;DHT22;2044;48.692;9.020;2023-04-01T03:10:13;6.30;99.90
4058;DHT22;2044;48.692;9.020;2023-04-01T03:12:40;6.30;99.90
4058;DHT22;2044;48.692;9.020;2023-04-01T03:15:10;6.30;99.90
4058;DHT22;2044;48.692;9.020;2023-04-01T03:17:37;6.30;99.90
4058;DHT22;2044;48.692;9.020;2023-04-01T03:20:04;6.30;99.90
4058;DHT22;2044;48.692;9.020;2023-04-01T03:22:31;6.30;99.90
4058;DHT22;2044;48.692;9.020;2023-04-01T03:24:58;6.30;99.90
4058;DHT22;2044;48.692;9.020;2023-04-01T03:27:25;6.40;99.90
4058;DHT22;2044;48.692;9.020;2023-04-01T03:29:51;6.40;99.90
4058;DHT22;2044;48.692;9.020;2023-04-01T03:34:47;6.30;99.90
4058;DHT22;2044;48.692;9.020;2023-04-01T03:37:14;6.30;99.90
4058;DHT22;2044;48.692;9.020;2023-04-01T03:39:40;6.30;99.90
4058;DHT22;2044;48.692;9.020;2023-04-01T03:44:34;6.30;99.90
4058;DHT22;2044;48.692;9.020;2023-04-01T03:47:01;6.30;99.90
4058;DHT22;2044;48.692;9.020;2023-04-01T03:49:29;6.30;99.90
4058;DHT22;2044;48.692;9.020;2023-04-01T03:51:57;6.30;99.90
4058;DHT22;2044;48.692;9.020;2023-04-01T03:54:24;6.30;99.90
4058;DHT22;2044;48.692;9.020;2023-04-01T03:56:51;6.30;99.90
4058;DHT22;2044;48.692;9.020;2023-04-01T03:59:18;6.20;99.90
4058;DHT22;2044;48.692;9.020;2023-04-01T04:01:46;6.20;99.90
4058;DHT22;2044;48.692;9.020;2023-04-01T04:04:13;6.10;99.90
4058;DHT22;2044;48.692;9.020;2023-04-01T04:06:41;6.10;99.90
4058;DHT22;2044;48.692;9.020;2023-04-01T04:09:07;6.00;99.90
4058;DHT22;2044;48.692;9.020;2023-04-01T04:11:34;5.90;99.90
4058;DHT22;2044;48.692;9.020;2023-04-01T04:14:01;5.90;99.90
4058;DHT22;2044;48.692;9.020;2023-04-01T04:16:28;5.90;99.90
4058;DHT22;2044;48.692;9.020;2023-04-01T04:18:55;5.80;99.90
4058;DHT22;2044;48.692;9.020;2023-04-01T04:21:21;5.80;99.90
4058;DHT22;2044;48.692;9.020;2023-04-01T04:23:50;5.80;99.90
4058;DHT22;2044;48.692;9.020;2023-04-01T04:26:17;5.70;99.90
4058;DHT22;2044;48.692;9.020;2023-04-01T04:28:43;5.70;99.90
4058;DHT22;2044;48.692;9.020;2023-04-01T04:31:10;5.60;99.90
4058;DHT22;2044;48.692;9.020;2023-04-01T04:33:37;5.60;99.90
4058;DHT22;2044;48.692;9.020;2023-04-01T04:36:05;5.60;99.90
4058;DHT22;2044;48.692;9.020;2023-04-01T04:38:31;5.60;99.90
4058;DHT22;2044;48.692;9.020;2023-04-01T04:40:59;5.60;99.90
4058;DHT22;2044;48.692;9.020;2023-04-01T04:43:26;5.70;99.90
4058;DHT22;2044;48.692;9.020;2023-04-01T04:45:53;5.70;99.90
4058;DHT22;2044;48.692;9.020;2023-04-01T04:48:19;5.70;99.90
4058;DHT22;2044;48.692;9.020;2023-04-01T04:50:47;5.70;99.90
4058;DHT22;2044;48.692;9.020;2023-04-01T04:53:15;5.80;99.90
4058;DHT22;2044;48.692;9.020;2023-04-01T04:55:43;5.80;99.90
4058;DHT22;2044;48.692;9.020;2023-04-01T04:58:11;5.90;99.90
4058;DHT22;2044;48.692;9.020;2023-04-01T05:03:05;6.00;99.90
4058;DHT22;2044;48.692;9.020;2023-04-01T05:07:59;6.10;99.90
4058;DHT22;2044;48.692;9.020;2023-04-01T05:10:26;6.20;99.90
4058;DHT22;2044;48.692;9.020;2023-04-01T05:12:53;6.20;99.90
4058;DHT22;2044;48.692;9.020;2023-04-01T05:15:21;6.30;99.90
4058;DHT22;2044;48.692;9.020;2023-04-01T05:17:48;6.30;99.90
4058;DHT22;2044;48.692;9.020;2023-04-01T05:20:15;6.40;99.90
4058;DHT22;2044;48.692;9.020;2023-04-01T05:22:43;6.40;99.90
4058;DHT22;2044;48.692;9.020;2023-04-01T05:25:09;6.50;99.90
4058;DHT22;2044;48.692;9.020;2023-04-01T05:27:36;6.50;99.90
4058;DHT22;2044;48.692;9.020;2023-04-01T05:30:04;6.60;99.90
4058;DHT22;2044;48.692;9.020;2023-04-01T05:32:32;6.60;99.90
4058;DHT22;2044;48.692;9.020;2023-04-01T05:37:26;6.70;99.90
4058;DHT22;2044;48.692;9.020;2023-04-01T05:39:52;6.60;99.90
4058;DHT22;2044;48.692;9.020;2023-04-01T05:42:19;6.60;99.90
4058;DHT22;2044;48.692;9.020;2023-04-01T05:44:46;6.60;99.90
4058;DHT22;2044;48.692;9.020;2023-04-01T05:47:13;6.60;99.90
4058;DHT22;2044;48.692;9.020;2023-04-01T05:49:41;6.70;99.90
4058;DHT22;2044;48.692;9.020;2023-04-01T05:52:08;6.80;99.90
4058;DHT22;2044;48.692;9.020;2023-04-01T05:54:35;7.10;99.90
4058;DHT22;2044;48.692;9.020;2023-04-01T05:57:02;7.40;99.90
4058;DHT22;2044;48.692;9.020;2023-04-01T05:59:29;7.60;99.90
4058;DHT22;2044;48.692;9.020;2023-04-01T06:01:56;7.60;99.90
4058;DHT22;2044;48.692;9.020;2023-04-01T06:04:24;7.60;99.90
4058;DHT22;2044;48.692;9.020;2023-04-01T06:06:52;7.50;99.90
4058;DHT22;2044;48.692;9.020;2023-04-01T06:09:24;7.70;99.90
4058;DHT22;2044;48.692;9.020;2023-04-01T06:12:16;7.70;99.90
4058;DHT22;2044;48.692;9.020;2023-04-01T06:14:50;9.20;99.90
4058;DHT22;2044;48.692;9.020;2023-04-01T06:17:27;7.60;99.90
4058;DHT22;2044;48.692;9.020;2023-04-01T06:20:01;7.60;99.90
4058;DHT22;2044;48.692;9.020;2023-04-01T06:22:57;7.60;99.90
4058;DHT22;2044;48.692;9.020;2023-04-01T06:25:50;9.80;99.90
4058;DHT22;2044;48.692;9.020;2023-04-01T06:31:37;7.40;99.90
4058;DHT22;2044;48.692;9.020;2023-04-01T06:34:20;7.40;99.90
4058;DHT22;2044;48.692;9.020;2023-04-01T06:37:06;7.20;99.90
4058;DHT22;2044;48.692;9.020;2023-04-01T06:39:52;7.20;99.90
4058;DHT22;2044;48.692;9.020;2023-04-01T06:42:46;7.20;99.90
4058;DHT22;2044;48.692;9.020;2023-04-01T06:47:57;7.10;99.90
4058;DHT22;2044;48.692;9.020;2023-04-01T06:50:30;7.20;99.90
4058;DHT22;2044;48.692;9.020;2023-04-01T06:53:01;7.20;99.90
4058;DHT22;2044;48.692;9.020;2023-04-01T06:55:37;7.10;99.90
4058;DHT22;2044;48.692;9.020;2023-04-01T06:58:11;7.20;99.90
4058;DHT22;2044;48.692;9.020;2023-04-01T07:00:41;7.20;99.90
4058;DHT22;2044;48.692;9.020;2023-04-01T07:03:18;7.20;99.90
4058;DHT22;2044;48.692;9.020;2023-04-01T07:05:45;7.20;99.90
4058;DHT22;2044;48.692;9.020;2023-04-01T07:08:16;7.20;99.90
4058;DHT22;2044;48.692;9.020;2023-04-01T07:10:47;7.30;99.90
4058;DHT22;2044;48.692;9.020;2023-04-01T07:13:20;7.30;99.90
4058;DHT22;2044;48.692;9.020;2023-04-01T07:15:55;7.30;99.90
4058;DHT22;2044;48.692;9.020;2023-04-01T07:18:30;7.30;99.90
4058;DHT22;2044;48.692;9.020;2023-04-01T07:20:57;7.30;99.90
4058;DHT22;2044;48.692;9.020;2023-04-01T07:23:28;7.30;99.90
4058;DHT22;2044;48.692;9.020;2023-04-01T07:26:00;7.30;99.90
4058;DHT22;2044;48.692;9.020;2023-04-01T07:28:30;7.30;99.90
4058;DHT22;2044;48.692;9.020;2023-04-01T07:31:04;7.30;99.90
4058;DHT22;2044;48.692;9.020;2023-04-01T07:33:37;7.30;99.90
4058;DHT22;2044;48.692;9.020;2023-04-01T07:36:08;7.30;99.90
4058;DHT22;2044;48.692;9.020;2023-04-01T07:38:44;7.30;99.90
4058;DHT22;2044;48.692;9.020;2023-04-01T07:41:22;7.30;99.90
4058;DHT22;2044;48.692;9.020;2023-04-01T07:43:59;7.40;99.90
4058;DHT22;2044;48.692;9.020;2023-04-01T07:46:40;7.40;99.90
4058;DHT22;2044;48.692;9.020;2023-04-01T07:49:15;7.40;99.90
4058;DHT22;2044;48.692;9.020;2023-04-01T07:51:48;7.50;99.90
4058;DHT22;2044;48.692;9.020;2023-04-01T07:54:21;7.50;99.90
4058;DHT22;2044;48.692;9.020;2023-04-01T07:56:54;7.60;99.90
4058;DHT22;2044;48.692;9.020;2023-04-01T07:59:28;7.60;99.90
4058;DHT22;2044;48.692;9.020;2023-04-01T08:02:06;7.60;99.90
4058;DHT22;2044;48.692;9.020;2023-04-01T08:04:45;7.60;99.90
4058;DHT22;2044;48.692;9.020;2023-04-01T08:07:17;7.70;99.90
4058;DHT22;2044;48.692;9.020;2023-04-01T08:09:51;7.60;99.90
4058;DHT22;2044;48.692;9.020;2023-04-01T08:12:29;7.50;99.90
4058;DHT22;2044;48.692;9.020;2023-04-01T08:15:11;7.50;99.90
4058;DHT22;2044;48.692;9.020;2023-04-01T08:17:48;7.50;99.90
4058;DHT22;2044;48.692;9.020;2023-04-01T08:20:26;7.40;99.90
4058;DHT22;2044;48.692;9.020;2023-04-01T08:22:58;7.50;99.90
4058;DHT22;2044;48.692;9.020;2023-04-01T08:25:28;7.40;99.90
4058;DHT22;2044;48.692;9.020;2023-04-01T08:28:00;7.50;99.90
4058;DHT22;2044;48.692;9.020;2023-04-01T08:30:38;7.50;99.90
4058;DHT22;2044;48.692;9.020;2023-04-01T08:33:12;7.40;99.90
4058;DHT22;2044;48.692;9.020;2023-04-01T08:35:43;7.30;99.90
4058;DHT22;2044;48.692;9.020;2023-04-01T08:38:16;7.30;99.90
4058;DHT22;2044;48.692;9.020;2023-04-01T08:40:59;7.20;99.90
4058;DHT22;2044;48.692;9.020;2023-04-01T08:43:46;7.20;99.90
4058;DHT22;2044;48.692;9.020;2023-04-01T08:46:35;7.00;99.90
4058;DHT22;2044;48.692;9.020;2023-04-01T08:49:16;7.00;99.90
4058;DHT22;2044;48.692;9.020;2023-04-01T08:52:07;6.90;99.90
4058;DHT22;2044;48.692;9.020;2023-04-01T08:54:46;6.80;99.90
4058;DHT22;2044;48.692;9.020;2023-04-01T08:57:20;7.00;99.90
4058;DHT22;2044;48.692;9.020;2023-04-01T09:00:01;7.20;99.90
4058;DHT22;2044;48.692;9.020;2023-04-01T09:02:55;7.20;99.90
4058;DHT22;2044;48.692;9.020;2023-04-01T09:05:47;7.30;99.90
4058;DHT22;2044;48.692;9.020;2023-04-01T09:08:31;7.50;99.90
4058;DHT22;2044;48.692;9.020;2023-04-01T09:11:08;7.80;99.90
4058;DHT22;2044;48.692;9.020;2023-04-01T09:20:00;8.30;99.90
4058;DHT22;2044;48.692;9.020;2023-04-01T09:22:40;9.20;99.90
4058;DHT22;2044;48.692;9.020;2023-04-01T09:25:27;9.70;99.90
4058;DHT22;2044;48.692;9.020;2023-04-01T09:28:05;9.30;99.90
4058;DHT22;2044;48.692;9.020;2023-04-01T09:31:00;9.20;99.90
4058;DHT22;2044;48.692;9.020;2023-04-01T09:33:50;8.50;99.90
4058;DHT22;2044;48.692;9.020;2023-04-01T09:36:29;8.40;99.90
4058;DHT22;2044;48.692;9.020;2023-04-01T09:39:12;8.30;99.90
4058;DHT22;2044;48.692;9.020;2023-04-01T09:41:57;8.40;99.90
4058;DHT22;2044;48.692;9.020;2023-04-01T09:44:33;8.20;99.90
4058;DHT22;2044;48.692;9.020;2023-04-01T09:47:09;8.20;99.90
4058;DHT22;2044;48.692;9.020;2023-04-01T09:49:57;8.00;99.90
4058;DHT22;2044;48.692;9.020;2023-04-01T09:52:31;7.90;99.90
4058;DHT22;2044;48.692;9.020;2023-04-01T09:58:28;8.00;99.90
4058;DHT22;2044;48.692;9.020;2023-04-01T10:01:34;7.90;99.90
4058;DHT22;2044;48.692;9.020;2023-04-01T10:10:47;7.90;99.90
4058;DHT22;2044;48.692;9.020;2023-04-01T10:13:40;7.90;99.90
4058;DHT22;2044;48.692;9.020;2023-04-01T10:16:25;7.90;99.90
4058;DHT22;2044;48.692;9.020;2023-04-01T10:19:13;8.00;99.90
4058;DHT22;2044;48.692;9.020;2023-04-01T10:22:04;8.10;99.90
4058;DHT22;2044;48.692;9.020;2023-04-01T10:31:34;8.80;99.90
4058;DHT22;2044;48.692;9.020;2023-04-01T10:37:22;9.60;99.90
4058;DHT22;2044;48.692;9.020;2023-04-01T10:40:16;9.90;99.90
4058;DHT22;2044;48.692;9.020;2023-04-01T10:43:17;10.50;99.90
4058;DHT22;2044;48.692;9.020;2023-04-01T10:46:17;9.90;99.90
4058;DHT22;2044;48.692;9.020;2023-04-01T10:49:18;10.20;99.90
4058;DHT22;2044;48.692;9.020;2023-04-01T10:54:49;10.50;99.90
4058;DHT22;2044;48.692;9.020;2023-04-01T10:57:48;10.40;99.90
4058;DHT22;2044;48.692;9.020;2023-04-01T11:00:37;10.30;99.90
4058;DHT22;2044;48.692;9.020;2023-04-01T11:03:40;10.10;99.90
4058;DHT22;2044;48.692;9.020;2023-04-01T11:13:11;10.20;99.90
4058;DHT22;2044;48.692;9.020;2023-04-01T11:16:02;10.40;99.90
4058;DHT22;2044;48.692;9.020;2023-04-01T11:22:08;9.50;99.90
4058;DHT22;2044;48.692;9.020;2023-04-01T11:25:12;9.50;99.90
4058;DHT22;2044;48.692;9.020;2023-04-01T11:28:11;9.60;99.90
4058;DHT22;2044;48.692;9.020;2023-04-01T11:30:53;9.50;99.90
4058;DHT22;2044;48.692;9.020;2023-04-01T11:33:28;8.10;99.90
4058;DHT22;2044;48.692;9.020;2023-04-01T11:36:12;9.10;99.90
4058;DHT22;2044;48.692;9.020;2023-04-01T11:39:11;9.70;99.90
4058;DHT22;2044;48.692;9.020;2023-04-01T11:41:46;9.30;99.90
4058;DHT22;2044;48.692;9.020;2023-04-01T11:44:18;9.30;99.90
4058;DHT22;2044;48.692;9.020;2023-04-01T11:47:14;9.40;99.90
4058;DHT22;2044;48.692;9.020;2023-04-01T11:49:52;9.40;99.90
4058;DHT22;2044;48.692;9.020;2023-04-01T11:55:25;10.00;99.90
4058;DHT22;2044;48.692;9.020;2023-04-01T11:58:22;10.00;99.90
4058;DHT22;2044;48.692;9.020;2023-04-01T12:01:01;9.80;99.90
4058;DHT22;2044;48.692;9.020;2023-04-01T12:04:00;9.50;99.90
4058;DHT22;2044;48.692;9.020;2023-04-01T12:06:36;9.90;99.90
4058;DHT22;2044;48.692;9.020;2023-04-01T12:09:14;10.30;99.90
4058;DHT22;2044;48.692;9.020;2023-04-01T12:11:50;10.30;99.90
4058;DHT22;2044;48.692;9.020;2023-04-01T12:14:23;10.10;99.90
4058;DHT22;2044;48.692;9.020;2023-04-01T12:17:01;10.00;99.90
4058;DHT22;2044;48.692;9.020;2023-04-01T12:19:41;9.90;99.90
4058;DHT22;2044;48.692;9.020;2023-04-01T12:22:31;9.80;99.90
4058;DHT22;2044;48.692;9.020;2023-04-01T12:25:18;9.90;99.90
4058;DHT22;2044;48.692;9.020;2023-04-01T12:27:53;9.70;99.90
4058;DHT22;2044;48.692;9.020;2023-04-01T12:30:51;9.70;99.90
4058;DHT22;2044;48.692;9.020;2023-04-01T12:33:31;9.40;99.90
4058;DHT22;2044;48.692;9.020;2023-04-01T12:36:11;9.30;99.90
4058;DHT22;2044;48.692;9.020;2023-04-01T12:38:51;9.20;99.90
4058;DHT22;2044;48.692;9.020;2023-04-01T12:41:31;9.10;99.90
4058;DHT22;2044;48.692;9.020;2023-04-01T12:44:29;9.90;99.90
4058;DHT22;2044;48.692;9.020;2023-04-01T12:47:24;10.00;99.90
4058;DHT22;2044;48.692;9.020;2023-04-01T12:50:01;10.30;99.90
4058;DHT22;2044;48.692;9.020;2023-04-01T12:52:44;10.20;99.90
4058;DHT22;2044;48.692;9.020;2023-04-01T12:55:36;10.20;99.90
4058;DHT22;2044;48.692;9.020;2023-04-01T12:58:40;10.20;99.90
4058;DHT22;2044;48.692;9.020;2023-04-01T13:01:35;10.50;99.90
4058;DHT22;2044;48.692;9.020;2023-04-01T13:04:30;10.50;99.90
4058;DHT22;2044;48.692;9.020;2023-04-01T13:07:25;10.70;99.90
4058;DHT22;2044;48.692;9.020;2023-04-01T13:10:02;10.70;99.90
4058;DHT22;2044;48.692;9.020;2023-04-01T13:12:43;10.50;99.90
4058;DHT22;2044;48.692;9.020;2023-04-01T13:15:22;10.20;99.90
4058;DHT22;2044;48.692;9.020;2023-04-01T13:17:53;10.20;99.90
4058;DHT22;2044;48.692;9.020;2023-04-01T13:20:40;10.30;99.90
4058;DHT22;2044;48.692;9.020;2023-04-01T13:23:16;10.20;99.90
4058;DHT22;2044;48.692;9.020;2023-04-01T13:25:49;9.80;99.90
4058;DHT22;2044;48.692;9.020;2023-04-01T13:28:20;9.80;99.90
4058;DHT22;2044;48.692;9.020;2023-04-01T13:30:54;9.80;99.90
4058;DHT22;2044;48.692;9.020;2023-04-01T13:33:29;9.80;99.90
4058;DHT22;2044;48.692;9.020;2023-04-01T13:36:07;10.00;99.90
4058;DHT22;2044;48.692;9.020;2023-04-01T13:39:20;9.80;99.90
4058;DHT22;2044;48.692;9.020;2023-04-01T13:42:12;10.00;99.90
4058;DHT22;2044;48.692;9.020;2023-04-01T13:44:44;10.30;99.90
4058;DHT22;2044;48.692;9.020;2023-04-01T13:47:30;10.30;99.90
4058;DHT22;2044;48.692;9.020;2023-04-01T13:50:17;10.10;99.90
4058;DHT22;2044;48.692;9.020;2023-04-01T13:55:59;10.00;99.90
4058;DHT22;2044;48.692;9.020;2023-04-01T13:58:48;9.90;99.90
4058;DHT22;2044;48.692;9.020;2023-04-01T14:01:23;9.80;99.90
4058;DHT22;2044;48.692;9.020;2023-04-01T14:04:09;9.80;99.90
4058;DHT22;2044;48.692;9.020;2023-04-01T14:06:54;10.30;99.90
4058;DHT22;2044;48.692;9.020;2023-04-01T14:09:36;10.50;99.90
4058;DHT22;2044;48.692;9.020;2023-04-01T14:12:13;10.50;99.90
4058;DHT22;2044;48.692;9.020;2023-04-01T14:14:56;10.20;99.90
4058;DHT22;2044;48.692;9.020;2023-04-01T14:17:46;10.20;99.90
4058;DHT22;2044;48.692;9.020;2023-04-01T14:20:37;10.10;99.90
4058;DHT22;2044;48.692;9.020;2023-04-01T14:26:12;9.90;99.90
4058;DHT22;2044;48.692;9.020;2023-04-01T14:28:49;10.00;99.90
4058;DHT22;2044;48.692;9.020;2023-04-01T14:31:41;10.00;99.90
4058;DHT22;2044;48.692;9.020;2023-04-01T14:34:30;10.00;99.90
4058;DHT22;2044;48.692;9.020;2023-04-01T14:37:15;10.30;99.90
4058;DHT22;2044;48.692;9.020;2023-04-01T14:40:05;10.30;99.90
4058;DHT22;2044;48.692;9.020;2023-04-01T14:42:51;10.40;99.90
4058;DHT22;2044;48.692;9.020;2023-04-01T14:45:43;10.30;99.90
4058;DHT22;2044;48.692;9.020;2023-04-01T14:48:21;10.20;99.90
4058;DHT22;2044;48.692;9.020;2023-04-01T14:50:51;9.70;99.90
4058;DHT22;2044;48.692;9.020;2023-04-01T14:53:27;9.80;99.90
4058;DHT22;2044;48.692;9.020;2023-04-01T14:55:55;9.80;99.90
4058;DHT22;2044;48.692;9.020;2023-04-01T14:58:24;9.90;99.90
4058;DHT22;2044;48.692;9.020;2023-04-01T15:01:07;9.60;99.90
4058;DHT22;2044;48.692;9.020;2023-04-01T15:03:39;9.70;99.90
4058;DHT22;2044;48.692;9.020;2023-04-01T15:06:27;9.70;99.90
4058;DHT22;2044;48.692;9.020;2023-04-01T15:09:03;9.70;99.90
4058;DHT22;2044;48.692;9.020;2023-04-01T15:11:42;9.90;99.90
4058;DHT22;2044;48.692;9.020;2023-04-01T15:14:36;9.90;99.90
4058;DHT22;2044;48.692;9.020;2023-04-01T15:17:20;9.90;99.90
4058;DHT22;2044;48.692;9.020;2023-04-01T15:20:25;9.90;99.90
4058;DHT22;2044;48.692;9.020;2023-04-01T15:23:09;10.00;99.90
4058;DHT22;2044;48.692;9.020;2023-04-01T15:26:11;10.10;99.90
4058;DHT22;2044;48.692;9.020;2023-04-01T15:28:44;9.80;99.90
4058;DHT22;2044;48.692;9.020;2023-04-01T15:31:15;10.00;99.90
4058;DHT22;2044;48.692;9.020;2023-04-01T15:36:29;10.10;99.90
4058;DHT22;2044;48.692;9.020;2023-04-01T15:39:09;10.00;99.90
4058;DHT22;2044;48.692;9.020;2023-04-01T15:41:46;9.90;99.90
4058;DHT22;2044;48.692;9.020;2023-04-01T15:44:51;9.90;99.90
4058;DHT22;2044;48.692;9.020;2023-04-01T15:47:35;9.70;99.90
4058;DHT22;2044;48.692;9.020;2023-04-01T15:53:11;9.70;99.90
4058;DHT22;2044;48.692;9.020;2023-04-01T15:55:46;9.50;99.90
4058;DHT22;2044;48.692;9.020;2023-04-01T15:58:41;9.40;99.90
4058;DHT22;2044;48.692;9.020;2023-04-01T16:03:50;8.90;99.90
4058;DHT22;2044;48.692;9.020;2023-04-01T16:06:39;8.80;99.90
4058;DHT22;2044;48.692;9.020;2023-04-01T16:09:24;8.50;99.90
4058;DHT22;2044;48.692;9.020;2023-04-01T16:12:00;8.50;99.90
4058;DHT22;2044;48.692;9.020;2023-04-01T16:14:39;8.50;99.90
4058;DHT22;2044;48.692;9.020;2023-04-01T16:17:24;8.60;99.90
4058;DHT22;2044;48.692;9.020;2023-04-01T16:19:56;8.60;99.90
4058;DHT22;2044;48.692;9.020;2023-04-01T16:22:30;8.60;99.90
4058;DHT22;2044;48.692;9.020;2023-04-01T16:25:14;8.70;99.90
4058;DHT22;2044;48.692;9.020;2023-04-01T16:27:48;8.80;99.90
4058;DHT22;2044;48.692;9.020;2023-04-01T16:30:32;8.90;99.90
4058;DHT22;2044;48.692;9.020;2023-04-01T16:33:03;8.90;99.90
4058;DHT22;2044;48.692;9.020;2023-04-01T16:35:40;9.00;99.90
4058;DHT22;2044;48.692;9.020;2023-04-01T16:38:13;9.10;99.90
4058;DHT22;2044;48.692;9.020;2023-04-01T16:40:45;9.00;99.90
4058;DHT22;2044;48.692;9.020;2023-04-01T16:43:21;9.10;99.90
4058;DHT22;2044;48.692;9.020;2023-04-01T16:46:12;9.00;99.90
4058;DHT22;2044;48.692;9.020;2023-04-01T16:48:52;9.10;99.90
4058;DHT22;2044;48.692;9.020;2023-04-01T16:51:24;9.10;99.90
4058;DHT22;2044;48.692;9.020;2023-04-01T16:54:02;9.10;99.90
4058;DHT22;2044;48.692;9.020;2023-04-01T16:56:39;9.00;99.90
4058;DHT22;2044;48.692;9.020;2023-04-01T16:59:17;8.90;99.90
4058;DHT22;2044;48.692;9.020;2023-04-01T17:01:52;8.90;99.90
4058;DHT22;2044;48.692;9.020;2023-04-01T17:04:27;8.80;99.90
4058;DHT22;2044;48.692;9.020;2023-04-01T17:07:05;8.70;99.90
4058;DHT22;2044;48.692;9.020;2023-04-01T17:10:04;8.70;99.90
4058;DHT22;2044;48.692;9.020;2023-04-01T17:12:39;8.60;99.90
4058;DHT22;2044;48.692;9.020;2023-04-01T17:15:17;8.70;99.90
4058;DHT22;2044;48.692;9.020;2023-04-01T17:17:54;8.70;99.90
4058;DHT22;2044;48.692;9.020;2023-04-01T17:23:01;8.70;99.90
4058;DHT22;2044;48.692;9.020;2023-04-01T17:25:41;8.60;99.90
4058;DHT22;2044;48.692;9.020;2023-04-01T17:28:24;8.60;99.90
4058;DHT22;2044;48.692;9.020;2023-04-01T17:31:00;8.60;99.90
4058;DHT22;2044;48.692;9.020;2023-04-01T17:33:57;8.50;99.90
4058;DHT22;2044;48.692;9.020;2023-04-01T17:36:36;8.50;99.90
4058;DHT22;2044;48.692;9.020;2023-04-01T17:39:18;8.50;99.90
4058;DHT22;2044;48.692;9.020;2023-04-01T17:41:50;8.50;99.90
4058;DHT22;2044;48.692;9.020;2023-04-01T17:44:28;8.50;99.90
4058;DHT22;2044;48.692;9.020;2023-04-01T17:47:23;8.50;99.90
4058;DHT22;2044;48.692;9.020;2023-04-01T17:50:02;8.40;99.90
4058;DHT22;2044;48.692;9.020;2023-04-01T17:52:34;8.40;99.90
4058;DHT22;2044;48.692;9.020;2023-04-01T17:55:25;8.40;99.90
4058;DHT22;2044;48.692;9.020;2023-04-01T17:58:02;8.40;99.90
4058;DHT22;2044;48.692;9.020;2023-04-01T18:00:33;8.30;99.90
4058;DHT22;2044;48.692;9.020;2023-04-01T18:03:16;8.30;99.90
4058;DHT22;2044;48.692;9.020;2023-04-01T18:06:01;8.20;99.90
4058;DHT22;2044;48.692;9.020;2023-04-01T18:08:41;8.10;99.90
4058;DHT22;2044;48.692;9.020;2023-04-01T18:11:19;8.00;99.90
4058;DHT22;2044;48.692;9.020;2023-04-01T18:14:10;8.00;99.90
4058;DHT22;2044;48.692;9.020;2023-04-01T18:16:52;7.80;99.90
4058;DHT22;2044;48.692;9.020;2023-04-01T18:19:27;7.40;99.90
4058;DHT22;2044;48.692;9.020;2023-04-01T18:22:05;7.10;99.90
4058;DHT22;2044;48.692;9.020;2023-04-01T18:24:40;7.10;99.90
4058;DHT22;2044;48.692;9.020;2023-04-01T18:27:15;7.00;99.90
4058;DHT22;2044;48.692;9.020;2023-04-01T18:29:48;6.80;99.90
4058;DHT22;2044;48.692;9.020;2023-04-01T18:32:31;6.80;99.90
4058;DHT22;2044;48.692;9.020;2023-04-01T18:35:14;6.80;99.90
4058;DHT22;2044;48.692;9.020;2023-04-01T18:37:49;6.80;99.90
4058;DHT22;2044;48.692;9.020;2023-04-01T18:40:22;6.80;99.90